CDT,Max TemperatureF,Mean TemperatureF,Min TemperatureF,Max Dew PointF,MeanDew PointF,Min DewpointF,Max Humidity, Mean Humidity, Min Humidity, Max Sea Level PressureIn, Mean Sea Level PressureIn, Min Sea Level PressureIn, Max VisibilityMiles, Mean VisibilityMiles, Min VisibilityMiles, Max Wind SpeedMPH, Mean Wind SpeedMPH, Max Gust SpeedMPH,PrecipitationIn, CloudCover, Events, WindDirDegrees
2013-9-1,75,68,60,73,63,59,100,91,61,29.91,29.82,29.77,10,9,4,14,6,22,0.06,4,Rain-Thunderstorm,250
2013-9-2,62,56,50,59,53,48,100,87,68,30.05,29.98,29.90,10,10,7,14,9,20,0.00,4,,336
2013-9-3,71,58,44,54,49,43,100,84,43,30.11,30.06,30.01,10,10,0,10,5,,0.00,0,Fog,294
2013-9-4,75,64,53,63,56,52,94,81,65,30.19,30.09,30.03,10,10,7,12,6,,0.00,0,,297
2013-9-5,71,58,46,55,51,46,100,84,46,30.32,30.25,30.20,10,10,7,9,6,,0.00,1,,94
2013-9-6,82,66,50,66,56,46,100,81,54,30.23,30.12,29.97,10,10,10,13,6,,0.00,1,,174
2013-9-7,87,76,64,73,65,59,100,80,48,30.08,29.97,29.92,10,9,7,18,6,23,0.00,4,Rain,196
2013-9-8,71,62,53,63,54,48,100,80,50,30.15,30.09,30.00,10,10,7,16,9,20,0.00,4,,80
2013-9-9,84,72,59,73,64,55,100,87,70,29.99,29.87,29.73,10,9,5,14,6,17,0.00,4,,133
2013-9-10,82,75,66,72,65,63,94,78,54,29.97,29.88,29.77,10,8,5,12,7,17,0.00,3,Thunderstorm,238
2013-9-11,82,71,57,66,60,52,100,79,42,30.06,30.01,29.97,10,10,7,14,5,20,0.00,0,,268
2013-9-12,68,58,48,55,50,41,100,80,49,30.22,30.08,30.00,10,10,7,17,6,21,0.00,3,,341
2013-9-13,62,50,39,45,42,37,100,82,39,30.27,30.21,30.14,10,10,10,8,3,,0.00,0,,349
2013-9-14,69,54,39,54,45,39,100,82,40,30.15,30.09,29.99,10,10,7,14,5,17,0.03,2,Rain,213
2013-9-15,62,52,42,55,51,41,100,94,77,30.31,30.09,29.98,10,8,2,14,4,22,0.17,7,Rain,26
2013-9-16,60,48,35,43,40,36,100,86,42,30.45,30.37,30.32,10,10,7,8,5,,0.00,0,,46
2013-9-17,64,50,35,54,45,36,100,93,59,30.36,30.27,30.09,10,9,1,15,3,,0.08,3,Rain,132
2013-9-18,71,62,53,68,59,54,100,97,78,30.08,29.97,29.85,10,5,2,9,7,,0.54,6,Rain-Thunderstorm,142
2013-9-19,78,70,62,72,66,63,100,97,74,29.87,29.81,29.72,10,5,0,16,6,22,0.06,5,Fog-Rain-Thunderstorm,180
2013-9-20,64,57,50,64,59,46,100,94,73,29.85,29.77,29.72,10,7,3,14,7,21,0.00,7,Rain,266
2013-9-21,57,49,41,46,44,39,100,88,63,30.00,29.90,29.85,10,9,7,16,8,22,0.01,3,,316
2013-9-22,59,47,35,43,39,36,100,88,48,30.11,30.05,30.00,10,10,7,7,3,,0.00,0,,98
2013-9-23,64,50,37,52,44,37,100,90,59,30.14,30.08,30.05,10,10,7,12,6,16,0.00,0,,120
2013-9-24,69,55,41,54,47,41,100,91,46,30.08,30.05,29.99,10,6,0,7,5,,0.00,1,Fog,102
2013-9-25,66,54,42,52,47,43,100,90,56,30.05,30.02,29.99,10,7,1,8,2,,0.00,0,,100
2013-9-26,71,56,41,57,49,41,100,91,56,30.10,30.07,30.02,10,6,0,13,4,17,0.00,2,Fog,108
2013-9-27,78,63,48,55,50,46,100,77,34,30.13,30.09,30.02,10,9,7,15,7,21,0.00,0,,128
2013-9-28,75,62,50,64,52,46,100,84,53,30.04,29.94,29.78,10,9,2,30,8,36,0.03,3,Rain,165
2013-9-29,66,52,39,52,46,39,100,89,49,30.04,29.99,29.95,10,9,1,12,6,,0.03,0,Fog,219
2013-9-30,69,58,48,48,45,45,87,74,40,29.96,29.88,29.77,10,10,10,20,8,30,0.00,0,,164